sensor_id;sensor_type;location;lat;lon;timestamp;temperature;humidity
8220;DHT22;4151;51.110;7.020;2023-09-08T00:02:12;18.00;99.90
8220;DHT22;4151;51.110;7.020;2023-09-08T00:04:37;18.00;99.90
8220;DHT22;4151;51.110;7.020;2023-09-08T00:07:03;18.00;99.90
8220;DHT22;4151;51.110;7.020;2023-09-08T00:09:29;18.00;99.90
8220;DHT22;4151;51.110;7.020;2023-09-08T00:11:55;17.90;99.90
8220;DHT22;4151;51.110;7.020;2023-09-08T00:14:20;17.90;99.90
8220;DHT22;4151;51.110;7.020;2023-09-08T00:16:46;18.00;99.90
8220;DHT22;4151;51.110;7.020;2023-09-08T00:19:12;17.90;99.90
8220;DHT22;4151;51.110;7.020;2023-09-08T00:21:37;17.90;99.90
8220;DHT22;4151;51.110;7.020;2023-09-08T00:24:04;17.90;99.90
8220;DHT22;4151;51.110;7.020;2023-09-08T00:26:30;17.80;99.90
8220;DHT22;4151;51.110;7.020;2023-09-08T00:28:56;17.60;99.90
8220;DHT22;4151;51.110;7.020;2023-09-08T00:31:21;17.40;99.90
8220;DHT22;4151;51.110;7.020;2023-09-08T00:33:47;17.20;99.90
8220;DHT22;4151;51.110;7.020;2023-09-08T00:36:12;17.10;99.90
8220;DHT22;4151;51.110;7.020;2023-09-08T00:38:38;17.20;99.90
8220;DHT22;4151;51.110;7.020;2023-09-08T00:41:07;17.20;99.90
8220;DHT22;4151;51.110;7.020;2023-09-08T00:43:33;17.30;99.90
8220;DHT22;4151;51.110;7.020;2023-09-08T00:45:59;17.30;99.90
8220;DHT22;4151;51.110;7.020;2023-09-08T00:48:28;17.30;99.90
8220;DHT22;4151;51.110;7.020;2023-09-08T00:50:54;17.30;99.90
8220;DHT22;4151;51.110;7.020;2023-09-08T00:53:20;17.30;99.90
8220;DHT22;4151;51.110;7.020;2023-09-08T00:55:46;17.20;99.90
8220;DHT22;4151;51.110;7.020;2023-09-08T00:58:12;17.20;99.90
8220;DHT22;4151;51.110;7.020;2023-09-08T01:00:38;17.10;99.90
8220;DHT22;4151;51.110;7.020;2023-09-08T01:03:04;17.00;99.90
8220;DHT22;4151;51.110;7.020;2023-09-08T01:05:29;17.00;99.90
8220;DHT22;4151;51.110;7.020;2023-09-08T01:07:56;17.00;99.90
8220;DHT22;4151;51.110;7.020;2023-09-08T01:10:22;17.00;99.90
8220;DHT22;4151;51.110;7.020;2023-09-08T01:12:48;17.00;99.90
8220;DHT22;4151;51.110;7.020;2023-09-08T01:15:14;17.00;99.90
8220;DHT22;4151;51.110;7.020;2023-09-08T01:17:39;16.90;99.90
8220;DHT22;4151;51.110;7.020;2023-09-08T01:20:17;16.90;99.90
8220;DHT22;4151;51.110;7.020;2023-09-08T01:23:03;16.90;99.90
8220;DHT22;4151;51.110;7.020;2023-09-08T01:25:44;16.90;99.90
8220;DHT22;4151;51.110;7.020;2023-09-08T01:28:12;16.90;99.90
8220;DHT22;4151;51.110;7.020;2023-09-08T01:30:38;16.90;99.90
8220;DHT22;4151;51.110;7.020;2023-09-08T01:33:05;16.80;99.90
8220;DHT22;4151;51.110;7.020;2023-09-08T01:35:31;16.80;99.90
8220;DHT22;4151;51.110;7.020;2023-09-08T01:37:57;16.80;99.90
8220;DHT22;4151;51.110;7.020;2023-09-08T01:40:23;16.80;99.90
8220;DHT22;4151;51.110;7.020;2023-09-08T01:42:49;16.80;99.90
8220;DHT22;4151;51.110;7.020;2023-09-08T01:45:15;16.80;99.90
8220;DHT22;4151;51.110;7.020;2023-09-08T01:47:40;16.80;99.90
8220;DHT22;4151;51.110;7.020;2023-09-08T01:50:06;16.70;99.90
8220;DHT22;4151;51.110;7.020;2023-09-08T01:52:32;16.60;99.90
8220;DHT22;4151;51.110;7.020;2023-09-08T01:54:57;16.50;99.90
8220;DHT22;4151;51.110;7.020;2023-09-08T01:57:23;16.30;99.90
8220;DHT22;4151;51.110;7.020;2023-09-08T01:59:48;16.20;99.90
8220;DHT22;4151;51.110;7.020;2023-09-08T02:02:14;16.10;99.90
8220;DHT22;4151;51.110;7.020;2023-09-08T02:04:40;16.10;99.90
8220;DHT22;4151;51.110;7.020;2023-09-08T02:07:05;16.20;99.90
8220;DHT22;4151;51.110;7.020;2023-09-08T02:11:58;16.20;99.90
8220;DHT22;4151;51.110;7.020;2023-09-08T02:14:23;16.20;99.90
8220;DHT22;4151;51.110;7.020;2023-09-08T02:16:49;16.20;99.90
8220;DHT22;4151;51.110;7.020;2023-09-08T02:19:14;16.10;99.90
8220;DHT22;4151;51.110;7.020;2023-09-08T02:21:40;16.10;99.90
8220;DHT22;4151;51.110;7.020;2023-09-08T02:24:05;16.00;99.90
8220;DHT22;4151;51.110;7.020;2023-09-08T02:26:31;16.00;99.90
8220;DHT22;4151;51.110;7.020;2023-09-08T02:28:59;16.00;99.90
8220;DHT22;4151;51.110;7.020;2023-09-08T02:31:26;16.00;99.90
8220;DHT22;4151;51.110;7.020;2023-09-08T02:33:52;16.10;99.90
8220;DHT22;4151;51.110;7.020;2023-09-08T02:36:18;16.10;99.90
8220;DHT22;4151;51.110;7.020;2023-09-08T02:38:56;16.10;99.90
8220;DHT22;4151;51.110;7.020;2023-09-08T02:41:23;16.10;99.90
8220;DHT22;4151;51.110;7.020;2023-09-08T02:43:49;16.00;99.90
8220;DHT22;4151;51.110;7.020;2023-09-08T02:46:15;16.00;99.90
8220;DHT22;4151;51.110;7.020;2023-09-08T02:48:41;16.00;99.90
8220;DHT22;4151;51.110;7.020;2023-09-08T02:51:06;16.10;99.90
8220;DHT22;4151;51.110;7.020;2023-09-08T02:53:32;16.10;99.90
8220;DHT22;4151;51.110;7.020;2023-09-08T02:55:58;16.10;99.90
8220;DHT22;4151;51.110;7.020;2023-09-08T02:58:25;16.00;99.90
8220;DHT22;4151;51.110;7.020;2023-09-08T03:00:50;16.10;99.90
8220;DHT22;4151;51.110;7.020;2023-09-08T03:03:18;16.10;99.90
8220;DHT22;4151;51.110;7.020;2023-09-08T03:05:43;16.20;99.90
8220;DHT22;4151;51.110;7.020;2023-09-08T03:08:09;16.20;99.90
8220;DHT22;4151;51.110;7.020;2023-09-08T03:10:34;16.20;99.90
8220;DHT22;4151;51.110;7.020;2023-09-08T03:13:01;16.20;99.90
8220;DHT22;4151;51.110;7.020;2023-09-08T03:15:27;16.20;99.90
8220;DHT22;4151;51.110;7.020;2023-09-08T03:17:55;16.20;99.90
8220;DHT22;4151;51.110;7.020;2023-09-08T03:20:21;16.20;99.90
8220;DHT22;4151;51.110;7.020;2023-09-08T03:22:47;16.20;99.90
8220;DHT22;4151;51.110;7.020;2023-09-08T03:25:15;16.30;99.90
8220;DHT22;4151;51.110;7.020;2023-09-08T03:27:41;16.40;99.90
8220;DHT22;4151;51.110;7.020;2023-09-08T03:30:07;16.40;99.90
8220;DHT22;4151;51.110;7.020;2023-09-08T03:32:33;16.50;99.90
8220;DHT22;4151;51.110;7.020;2023-09-08T03:34:58;16.50;99.90
8220;DHT22;4151;51.110;7.020;2023-09-08T03:37:24;16.50;99.90
8220;DHT22;4151;51.110;7.020;2023-09-08T03:39:51;16.40;99.90
8220;DHT22;4151;51.110;7.020;2023-09-08T03:42:17;16.30;99.90
8220;DHT22;4151;51.110;7.020;2023-09-08T03:44:43;16.30;99.90
8220;DHT22;4151;51.110;7.020;2023-09-08T03:47:08;16.30;99.90
8220;DHT22;4151;51.110;7.020;2023-09-08T03:49:34;16.20;99.90
8220;DHT22;4151;51.110;7.020;2023-09-08T03:51:59;16.20;99.90
8220;DHT22;4151;51.110;7.020;2023-09-08T03:54:25;16.00;99.90
8220;DHT22;4151;51.110;7.020;2023-09-08T03:56:50;15.90;99.90
8220;DHT22;4151;51.110;7.020;2023-09-08T03:59:16;15.90;99.90
8220;DHT22;4151;51.110;7.020;2023-09-08T04:01:41;16.00;99.90
8220;DHT22;4151;51.110;7.020;2023-09-08T04:04:07;16.00;99.90
8220;DHT22;4151;51.110;7.020;2023-09-08T04:06:33;16.00;99.90
8220;DHT22;4151;51.110;7.020;2023-09-08T04:08:59;16.00;99.90
8220;DHT22;4151;51.110;7.020;2023-09-08T04:11:24;16.00;99.90
8220;DHT22;4151;51.110;7.020;2023-09-08T04:13:51;16.00;99.90
8220;DHT22;4151;51.110;7.020;2023-09-08T04:16:17;15.90;99.90
8220;DHT22;4151;51.110;7.020;2023-09-08T04:18:42;15.80;99.90
8220;DHT22;4151;51.110;7.020;2023-09-08T04:21:08;15.80;99.90
8220;DHT22;4151;51.110;7.020;2023-09-08T04:23:33;15.80;99.90
8220;DHT22;4151;51.110;7.020;2023-09-08T04:25:59;15.70;99.90
8220;DHT22;4151;51.110;7.020;2023-09-08T04:28:24;15.60;99.90
8220;DHT22;4151;51.110;7.020;2023-09-08T04:30:50;15.50;99.90
8220;DHT22;4151;51.110;7.020;2023-09-08T04:33:15;15.50;99.90
8220;DHT22;4151;51.110;7.020;2023-09-08T04:35:41;15.50;99.90
8220;DHT22;4151;51.110;7.020;2023-09-08T04:38:07;15.50;99.90
8220;DHT22;4151;51.110;7.020;2023-09-08T04:40:32;15.50;99.90
8220;DHT22;4151;51.110;7.020;2023-09-08T04:42:58;15.40;99.90
8220;DHT22;4151;51.110;7.020;2023-09-08T04:45:24;15.40;99.90
8220;DHT22;4151;51.110;7.020;2023-09-08T04:47:49;15.30;99.90
8220;DHT22;4151;51.110;7.020;2023-09-08T04:50:15;15.30;99.90
8220;DHT22;4151;51.110;7.020;2023-09-08T04:52:41;15.40;99.90
8220;DHT22;4151;51.110;7.020;2023-09-08T04:55:07;15.40;99.90
8220;DHT22;4151;51.110;7.020;2023-09-08T04:57:33;15.40;99.90
8220;DHT22;4151;51.110;7.020;2023-09-08T04:59:58;15.40;99.90
8220;DHT22;4151;51.110;7.020;2023-09-08T05:02:24;15.40;99.90
8220;DHT22;4151;51.110;7.020;2023-09-08T05:04:49;15.40;99.90
8220;DHT22;4151;51.110;7.020;2023-09-08T05:07:15;15.30;99.90
8220;DHT22;4151;51.110;7.020;2023-09-08T05:09:40;15.30;99.90
8220;DHT22;4151;51.110;7.020;2023-09-08T05:12:06;15.40;99.90
8220;DHT22;4151;51.110;7.020;2023-09-08T05:14:32;15.40;99.90
8220;DHT22;4151;51.110;7.020;2023-09-08T05:16:57;15.40;99.90
8220;DHT22;4151;51.110;7.020;2023-09-08T05:19:23;15.40;99.90
8220;DHT22;4151;51.110;7.020;2023-09-08T05:21:54;15.30;99.90
8220;DHT22;4151;51.110;7.020;2023-09-08T05:24:19;15.30;99.90
8220;DHT22;4151;51.110;7.020;2023-09-08T05:26:46;15.30;99.90
8220;DHT22;4151;51.110;7.020;2023-09-08T05:29:11;15.40;99.90
8220;DHT22;4151;51.110;7.020;2023-09-08T05:31:37;15.40;99.90
8220;DHT22;4151;51.110;7.020;2023-09-08T05:34:02;15.40;99.90
8220;DHT22;4151;51.110;7.020;2023-09-08T05:36:28;15.40;99.90
8220;DHT22;4151;51.110;7.020;2023-09-08T05:38:55;15.50;99.90
8220;DHT22;4151;51.110;7.020;2023-09-08T05:41:21;15.50;99.90
8220;DHT22;4151;51.110;7.020;2023-09-08T05:43:46;15.60;99.90
8220;DHT22;4151;51.110;7.020;2023-09-08T05:46:12;15.60;99.90
8220;DHT22;4151;51.110;7.020;2023-09-08T05:48:38;15.70;99.90
8220;DHT22;4151;51.110;7.020;2023-09-08T05:51:04;15.70;99.90
8220;DHT22;4151;51.110;7.020;2023-09-08T05:53:31;15.80;99.90
8220;DHT22;4151;51.110;7.020;2023-09-08T05:55:56;15.80;99.90
8220;DHT22;4151;51.110;7.020;2023-09-08T05:58:22;16.00;99.90
8220;DHT22;4151;51.110;7.020;2023-09-08T06:00:49;16.00;99.90
8220;DHT22;4151;51.110;7.020;2023-09-08T06:03:15;16.10;99.90
8220;DHT22;4151;51.110;7.020;2023-09-08T06:05:40;16.20;99.90
8220;DHT22;4151;51.110;7.020;2023-09-08T06:08:06;16.30;99.90
8220;DHT22;4151;51.110;7.020;2023-09-08T06:10:32;16.30;99.90
8220;DHT22;4151;51.110;7.020;2023-09-08T06:12:57;16.40;99.90
8220;DHT22;4151;51.110;7.020;2023-09-08T06:15:23;16.60;99.90
8220;DHT22;4151;51.110;7.020;2023-09-08T06:17:48;16.60;99.90
8220;DHT22;4151;51.110;7.020;2023-09-08T06:20:14;16.80;99.90
8220;DHT22;4151;51.110;7.020;2023-09-08T06:22:41;17.00;99.90
8220;DHT22;4151;51.110;7.020;2023-09-08T06:25:07;17.10;99.90
8220;DHT22;4151;51.110;7.020;2023-09-08T06:27:33;17.30;99.90
8220;DHT22;4151;51.110;7.020;2023-09-08T06:29:58;17.50;99.90
8220;DHT22;4151;51.110;7.020;2023-09-08T06:32:24;17.80;99.90
8220;DHT22;4151;51.110;7.020;2023-09-08T06:34:49;18.20;99.90
8220;DHT22;4151;51.110;7.020;2023-09-08T06:37:15;18.50;99.90
8220;DHT22;4151;51.110;7.020;2023-09-08T06:39:40;18.90;99.90
8220;DHT22;4151;51.110;7.020;2023-09-08T06:42:06;19.20;99.90
8220;DHT22;4151;51.110;7.020;2023-09-08T06:44:31;19.40;99.90
8220;DHT22;4151;51.110;7.020;2023-09-08T06:46:57;19.70;99.90
8220;DHT22;4151;51.110;7.020;2023-09-08T06:49:23;19.80;99.90
8220;DHT22;4151;51.110;7.020;2023-09-08T06:51:48;20.00;99.90
8220;DHT22;4151;51.110;7.020;2023-09-08T06:54:14;20.10;99.90
8220;DHT22;4151;51.110;7.020;2023-09-08T06:56:40;20.20;99.90
8220;DHT22;4151;51.110;7.020;2023-09-08T06:59:05;20.30;99.90
8220;DHT22;4151;51.110;7.020;2023-09-08T07:01:31;20.40;99.90
8220;DHT22;4151;51.110;7.020;2023-09-08T07:03:56;20.50;99.90
8220;DHT22;4151;51.110;7.020;2023-09-08T07:06:22;20.70;99.90
8220;DHT22;4151;51.110;7.020;2023-09-08T07:08:48;20.80;99.90
8220;DHT22;4151;51.110;7.020;2023-09-08T07:11:15;20.90;99.90
8220;DHT22;4151;51.110;7.020;2023-09-08T07:13:41;21.10;99.90
8220;DHT22;4151;51.110;7.020;2023-09-08T07:16:07;21.20;99.90
8220;DHT22;4151;51.110;7.020;2023-09-08T07:18:32;21.40;99.90
8220;DHT22;4151;51.110;7.020;2023-09-08T07:21:01;21.50;99.90
8220;DHT22;4151;51.110;7.020;2023-09-08T07:23:27;21.70;99.90
8220;DHT22;4151;51.110;7.020;2023-09-08T07:25:52;21.90;99.90
8220;DHT22;4151;51.110;7.020;2023-09-08T07:28:18;22.00;99.90
8220;DHT22;4151;51.110;7.020;2023-09-08T07:30:44;22.10;99.90
8220;DHT22;4151;51.110;7.020;2023-09-08T07:33:10;22.30;99.90
8220;DHT22;4151;51.110;7.020;2023-09-08T07:35:39;22.40;99.90
8220;DHT22;4151;51.110;7.020;2023-09-08T07:38:05;22.50;99.90
8220;DHT22;4151;51.110;7.020;2023-09-08T07:40:35;22.60;99.90
8220;DHT22;4151;51.110;7.020;2023-09-08T07:43:01;22.70;99.90
8220;DHT22;4151;51.110;7.020;2023-09-08T07:45:26;22.80;99.90
8220;DHT22;4151;51.110;7.020;2023-09-08T07:47:52;22.90;99.90
8220;DHT22;4151;51.110;7.020;2023-09-08T07:50:22;23.10;99.90
8220;DHT22;4151;51.110;7.020;2023-09-08T07:52:48;23.10;99.90
8220;DHT22;4151;51.110;7.020;2023-09-08T07:55:15;23.30;99.90
8220;DHT22;4151;51.110;7.020;2023-09-08T07:57:45;23.40;99.90
8220;DHT22;4151;51.110;7.020;2023-09-08T08:00:14;23.50;99.90
8220;DHT22;4151;51.110;7.020;2023-09-08T08:02:44;23.60;99.90
8220;DHT22;4151;51.110;7.020;2023-09-08T08:05:10;23.70;99.90
8220;DHT22;4151;51.110;7.020;2023-09-08T08:07:36;23.80;99.90
8220;DHT22;4151;51.110;7.020;2023-09-08T08:10:02;23.90;99.90
8220;DHT22;4151;51.110;7.020;2023-09-08T08:12:28;24.00;99.90
8220;DHT22;4151;51.110;7.020;2023-09-08T08:14:54;24.10;99.90
8220;DHT22;4151;51.110;7.020;2023-09-08T08:17:20;24.40;99.90
8220;DHT22;4151;51.110;7.020;2023-09-08T08:19:45;24.50;99.90
8220;DHT22;4151;51.110;7.020;2023-09-08T08:22:11;24.70;99.90
8220;DHT22;4151;51.110;7.020;2023-09-08T08:24:37;24.80;99.90
8220;DHT22;4151;51.110;7.020;2023-09-08T08:27:03;25.10;99.90
8220;DHT22;4151;51.110;7.020;2023-09-08T08:29:29;25.40;99.90
8220;DHT22;4151;51.110;7.020;2023-09-08T08:31:55;25.70;99.90
8220;DHT22;4151;51.110;7.020;2023-09-08T08:34:21;25.80;99.90
8220;DHT22;4151;51.110;7.020;2023-09-08T08:36:46;25.90;99.90
8220;DHT22;4151;51.110;7.020;2023-09-08T08:39:12;26.20;99.90
8220;DHT22;4151;51.110;7.020;2023-09-08T08:41:37;26.50;99.90
8220;DHT22;4151;51.110;7.020;2023-09-08T08:44:08;26.90;99.90
8220;DHT22;4151;51.110;7.020;2023-09-08T08:46:34;27.20;99.90
8220;DHT22;4151;51.110;7.020;2023-09-08T08:49:03;27.40;99.90
8220;DHT22;4151;51.110;7.020;2023-09-08T08:51:30;27.80;99.90
8220;DHT22;4151;51.110;7.020;2023-09-08T08:53:56;27.90;99.90
8220;DHT22;4151;51.110;7.020;2023-09-08T08:56:22;28.00;99.90
8220;DHT22;4151;51.110;7.020;2023-09-08T08:58:49;28.40;99.90
8220;DHT22;4151;51.110;7.020;2023-09-08T09:01:18;28.20;99.90
8220;DHT22;4151;51.110;7.020;2023-09-08T09:03:49;28.30;99.90
8220;DHT22;4151;51.110;7.020;2023-09-08T09:06:15;28.30;99.90
8220;DHT22;4151;51.110;7.020;2023-09-08T09:08:44;28.20;99.90
8220;DHT22;4151;51.110;7.020;2023-09-08T09:11:11;28.10;99.90
8220;DHT22;4151;51.110;7.020;2023-09-08T09:13:37;28.20;99.90
8220;DHT22;4151;51.110;7.020;2023-09-08T09:16:03;28.40;99.90
8220;DHT22;4151;51.110;7.020;2023-09-08T09:18:32;28.50;99.90
8220;DHT22;4151;51.110;7.020;2023-09-08T09:21:01;28.50;99.90
8220;DHT22;4151;51.110;7.020;2023-09-08T09:23:34;28.40;99.90
8220;DHT22;4151;51.110;7.020;2023-09-08T09:26:02;28.90;99.90
8220;DHT22;4151;51.110;7.020;2023-09-08T09:28:31;29.30;99.90
8220;DHT22;4151;51.110;7.020;2023-09-08T09:30:56;29.20;99.90
8220;DHT22;4151;51.110;7.020;2023-09-08T09:33:22;29.20;99.90
8220;DHT22;4151;51.110;7.020;2023-09-08T09:35:53;29.20;99.90
8220;DHT22;4151;51.110;7.020;2023-09-08T09:38:20;29.80;99.90
8220;DHT22;4151;51.110;7.020;2023-09-08T09:40:47;30.30;99.90
8220;DHT22;4151;51.110;7.020;2023-09-08T09:43:14;30.30;99.90
8220;DHT22;4151;51.110;7.020;2023-09-08T09:45:41;30.10;99.90
8220;DHT22;4151;51.110;7.020;2023-09-08T09:48:08;30.10;99.90
8220;DHT22;4151;51.110;7.020;2023-09-08T09:50:39;30.10;99.90
8220;DHT22;4151;51.110;7.020;2023-09-08T09:53:12;30.20;99.90
8220;DHT22;4151;51.110;7.020;2023-09-08T09:55:39;30.20;99.90
8220;DHT22;4151;51.110;7.020;2023-09-08T09:58:06;30.40;99.90
8220;DHT22;4151;51.110;7.020;2023-09-08T10:00:34;30.90;99.90
8220;DHT22;4151;51.110;7.020;2023-09-08T10:03:00;30.80;99.90
8220;DHT22;4151;51.110;7.020;2023-09-08T10:05:26;30.60;99.90
8220;DHT22;4151;51.110;7.020;2023-09-08T10:07:52;30.90;99.90
8220;DHT22;4151;51.110;7.020;2023-09-08T10:10:18;31.30;99.90
8220;DHT22;4151;51.110;7.020;2023-09-08T10:12:46;31.80;99.90
8220;DHT22;4151;51.110;7.020;2023-09-08T10:15:12;31.80;99.90
8220;DHT22;4151;51.110;7.020;2023-09-08T10:17:40;31.90;99.90
8220;DHT22;4151;51.110;7.020;2023-09-08T10:20:08;32.10;99.90
8220;DHT22;4151;51.110;7.020;2023-09-08T10:22:38;32.50;99.90
8220;DHT22;4151;51.110;7.020;2023-09-08T10:25:07;32.70;99.90
8220;DHT22;4151;51.110;7.020;2023-09-08T10:27:34;32.80;99.90
8220;DHT22;4151;51.110;7.020;2023-09-08T10:30:02;33.30;99.90
8220;DHT22;4151;51.110;7.020;2023-09-08T10:32:33;33.10;99.90
8220;DHT22;4151;51.110;7.020;2023-09-08T10:35:02;32.70;99.90
8220;DHT22;4151;51.110;7.020;2023-09-08T10:37:28;32.70;99.90
8220;DHT22;4151;51.110;7.020;2023-09-08T10:39:55;33.00;99.90
8220;DHT22;4151;51.110;7.020;2023-09-08T10:42:25;33.20;99.90
8220;DHT22;4151;51.110;7.020;2023-09-08T10:45:00;33.00;99.90
8220;DHT22;4151;51.110;7.020;2023-09-08T10:47:55;33.00;99.90
8220;DHT22;4151;51.110;7.020;2023-09-08T10:50:48;34.10;99.90
8220;DHT22;4151;51.110;7.020;2023-09-08T10:53:15;34.10;99.90
8220;DHT22;4151;51.110;7.020;2023-09-08T10:55:45;34.00;99.90
8220;DHT22;4151;51.110;7.020;2023-09-08T10:58:32;34.60;99.90
8220;DHT22;4151;51.110;7.020;2023-09-08T11:01:16;34.50;99.90
8220;DHT22;4151;51.110;7.020;2023-09-08T11:03:44;34.70;99.90
8220;DHT22;4151;51.110;7.020;2023-09-08T11:06:11;34.20;99.90
8220;DHT22;4151;51.110;7.020;2023-09-08T11:08:42;33.80;99.90
8220;DHT22;4151;51.110;7.020;2023-09-08T11:11:14;33.70;99.90
8220;DHT22;4151;51.110;7.020;2023-09-08T11:13:40;34.20;99.90
8220;DHT22;4151;51.110;7.020;2023-09-08T11:16:06;34.70;99.90
8220;DHT22;4151;51.110;7.020;2023-09-08T11:18:33;35.20;99.60
8220;DHT22;4151;51.110;7.020;2023-09-08T11:21:01;35.70;99.90
8220;DHT22;4151;51.110;7.020;2023-09-08T11:23:27;36.00;97.00
8220;DHT22;4151;51.110;7.020;2023-09-08T11:25:53;36.20;96.60
8220;DHT22;4151;51.110;7.020;2023-09-08T11:28:22;36.30;97.30
8220;DHT22;4151;51.110;7.020;2023-09-08T11:30:48;36.70;97.20
8220;DHT22;4151;51.110;7.020;2023-09-08T11:33:15;37.00;95.70
8220;DHT22;4151;51.110;7.020;2023-09-08T11:35:40;36.70;96.80
8220;DHT22;4151;51.110;7.020;2023-09-08T11:38:10;36.70;96.30
8220;DHT22;4151;51.110;7.020;2023-09-08T11:40:36;36.50;95.10
8220;DHT22;4151;51.110;7.020;2023-09-08T11:43:03;36.60;94.90
8220;DHT22;4151;51.110;7.020;2023-09-08T11:45:30;36.50;94.20
8220;DHT22;4151;51.110;7.020;2023-09-08T11:47:56;36.50;95.00
8220;DHT22;4151;51.110;7.020;2023-09-08T11:50:23;36.70;95.10
8220;DHT22;4151;51.110;7.020;2023-09-08T11:52:51;37.20;93.80
8220;DHT22;4151;51.110;7.020;2023-09-08T11:55:17;37.20;94.20
8220;DHT22;4151;51.110;7.020;2023-09-08T11:57:45;37.30;93.20
8220;DHT22;4151;51.110;7.020;2023-09-08T12:00:12;37.70;93.10
8220;DHT22;4151;51.110;7.020;2023-09-08T12:02:43;37.80;92.30
8220;DHT22;4151;51.110;7.020;2023-09-08T12:05:27;37.40;92.30
8220;DHT22;4151;51.110;7.020;2023-09-08T12:07:55;37.20;93.70
8220;DHT22;4151;51.110;7.020;2023-09-08T12:10:22;37.30;92.40
8220;DHT22;4151;51.110;7.020;2023-09-08T12:12:52;37.50;92.90
8220;DHT22;4151;51.110;7.020;2023-09-08T12:15:35;37.60;92.20
8220;DHT22;4151;51.110;7.020;2023-09-08T12:18:06;37.50;91.50
8220;DHT22;4151;51.110;7.020;2023-09-08T12:20:32;37.50;91.60
8220;DHT22;4151;51.110;7.020;2023-09-08T12:23:03;37.80;91.00
8220;DHT22;4151;51.110;7.020;2023-09-08T12:25:29;38.70;90.20
8220;DHT22;4151;51.110;7.020;2023-09-08T12:27:59;38.50;90.50
8220;DHT22;4151;51.110;7.020;2023-09-08T12:30:25;38.80;90.80
8220;DHT22;4151;51.110;7.020;2023-09-08T12:33:01;39.30;87.80
8220;DHT22;4151;51.110;7.020;2023-09-08T12:35:28;38.90;87.50
8220;DHT22;4151;51.110;7.020;2023-09-08T12:40:23;38.90;87.40
8220;DHT22;4151;51.110;7.020;2023-09-08T12:42:49;39.00;86.00
8220;DHT22;4151;51.110;7.020;2023-09-08T12:45:15;38.60;85.10
8220;DHT22;4151;51.110;7.020;2023-09-08T12:47:40;38.60;86.10
8220;DHT22;4151;51.110;7.020;2023-09-08T12:50:06;38.40;86.40
8220;DHT22;4151;51.110;7.020;2023-09-08T12:52:32;38.50;86.90
8220;DHT22;4151;51.110;7.020;2023-09-08T12:54:58;38.60;88.10
8220;DHT22;4151;51.110;7.020;2023-09-08T12:57:23;38.90;84.20
8220;DHT22;4151;51.110;7.020;2023-09-08T12:59:49;39.20;85.10
8220;DHT22;4151;51.110;7.020;2023-09-08T13:02:17;39.60;82.70
8220;DHT22;4151;51.110;7.020;2023-09-08T13:04:42;39.40;84.20
8220;DHT22;4151;51.110;7.020;2023-09-08T13:07:16;39.70;85.30
8220;DHT22;4151;51.110;7.020;2023-09-08T13:09:42;40.30;82.20
8220;DHT22;4151;51.110;7.020;2023-09-08T13:12:07;40.60;79.90
8220;DHT22;4151;51.110;7.020;2023-09-08T13:14:38;41.10;79.00
8220;DHT22;4151;51.110;7.020;2023-09-08T13:17:03;40.50;78.00
8220;DHT22;4151;51.110;7.020;2023-09-08T13:19:29;40.60;80.30
8220;DHT22;4151;51.110;7.020;2023-09-08T13:21:55;40.80;80.70
8220;DHT22;4151;51.110;7.020;2023-09-08T13:24:20;40.80;79.40
8220;DHT22;4151;51.110;7.020;2023-09-08T13:26:47;41.20;79.40
8220;DHT22;4151;51.110;7.020;2023-09-08T13:29:13;41.40;77.20
8220;DHT22;4151;51.110;7.020;2023-09-08T13:31:38;41.20;76.50
8220;DHT22;4151;51.110;7.020;2023-09-08T13:34:04;41.20;75.50
8220;DHT22;4151;51.110;7.020;2023-09-08T13:36:30;40.90;76.60
8220;DHT22;4151;51.110;7.020;2023-09-08T13:38:55;41.30;75.80
8220;DHT22;4151;51.110;7.020;2023-09-08T13:41:21;40.60;76.40
8220;DHT22;4151;51.110;7.020;2023-09-08T13:43:47;40.40;77.40
8220;DHT22;4151;51.110;7.020;2023-09-08T13:46:12;41.30;75.50
8220;DHT22;4151;51.110;7.020;2023-09-08T13:48:38;41.70;75.10
8220;DHT22;4151;51.110;7.020;2023-09-08T13:51:03;42.10;73.30
8220;DHT22;4151;51.110;7.020;2023-09-08T13:53:29;41.70;73.70
8220;DHT22;4151;51.110;7.020;2023-09-08T13:55:58;42.50;71.20
8220;DHT22;4151;51.110;7.020;2023-09-08T13:58:24;42.30;71.30
8220;DHT22;4151;51.110;7.020;2023-09-08T14:00:50;42.40;69.90
8220;DHT22;4151;51.110;7.020;2023-09-08T14:03:17;42.10;70.10
8220;DHT22;4151;51.110;7.020;2023-09-08T14:05:43;42.40;72.60
8220;DHT22;4151;51.110;7.020;2023-09-08T14:08:08;43.20;70.80
8220;DHT22;4151;51.110;7.020;2023-09-08T14:10:34;43.80;67.70
8220;DHT22;4151;51.110;7.020;2023-09-08T14:12:59;43.10;69.40
8220;DHT22;4151;51.110;7.020;2023-09-08T14:15:25;44.00;66.80
8220;DHT22;4151;51.110;7.020;2023-09-08T14:17:50;43.70;67.20
8220;DHT22;4151;51.110;7.020;2023-09-08T14:20:16;45.10;65.90
8220;DHT22;4151;51.110;7.020;2023-09-08T14:22:42;45.30;63.70
8220;DHT22;4151;51.110;7.020;2023-09-08T14:25:07;45.20;63.30
8220;DHT22;4151;51.110;7.020;2023-09-08T14:27:33;44.40;63.90
8220;DHT22;4151;51.110;7.020;2023-09-08T14:30:00;43.90;64.20
8220;DHT22;4151;51.110;7.020;2023-09-08T14:32:26;43.60;63.90
8220;DHT22;4151;51.110;7.020;2023-09-08T14:34:51;43.50;65.80
8220;DHT22;4151;51.110;7.020;2023-09-08T14:37:17;43.50;65.70
8220;DHT22;4151;51.110;7.020;2023-09-08T14:39:42;43.70;64.60
8220;DHT22;4151;51.110;7.020;2023-09-08T14:42:08;43.60;63.90
8220;DHT22;4151;51.110;7.020;2023-09-08T14:44:35;44.00;64.20
8220;DHT22;4151;51.110;7.020;2023-09-08T14:47:00;44.20;63.90
8220;DHT22;4151;51.110;7.020;2023-09-08T14:49:26;44.10;63.40
8220;DHT22;4151;51.110;7.020;2023-09-08T14:51:51;44.10;63.90
8220;DHT22;4151;51.110;7.020;2023-09-08T14:54:17;44.60;64.70
8220;DHT22;4151;51.110;7.020;2023-09-08T14:56:43;45.20;63.00
8220;DHT22;4151;51.110;7.020;2023-09-08T14:59:08;45.90;62.60
8220;DHT22;4151;51.110;7.020;2023-09-08T15:01:34;46.50;61.20
8220;DHT22;4151;51.110;7.020;2023-09-08T15:04:00;46.30;60.50
8220;DHT22;4151;51.110;7.020;2023-09-08T15:06:25;46.30;61.10
8220;DHT22;4151;51.110;7.020;2023-09-08T15:08:51;46.70;60.30
8220;DHT22;4151;51.110;7.020;2023-09-08T15:11:16;45.70;60.60
8220;DHT22;4151;51.110;7.020;2023-09-08T15:13:42;45.80;61.20
8220;DHT22;4151;51.110;7.020;2023-09-08T15:16:07;46.10;60.70
8220;DHT22;4151;51.110;7.020;2023-09-08T15:18:33;46.20;60.90
8220;DHT22;4151;51.110;7.020;2023-09-08T15:20:58;45.90;60.60
8220;DHT22;4151;51.110;7.020;2023-09-08T15:23:24;45.70;61.30
8220;DHT22;4151;51.110;7.020;2023-09-08T15:25:54;46.50;59.20
8220;DHT22;4151;51.110;7.020;2023-09-08T15:28:20;46.90;60.00
8220;DHT22;4151;51.110;7.020;2023-09-08T15:30:49;47.40;60.00
8220;DHT22;4151;51.110;7.020;2023-09-08T15:33:15;47.90;59.00
8220;DHT22;4151;51.110;7.020;2023-09-08T15:35:44;47.60;59.00
8220;DHT22;4151;51.110;7.020;2023-09-08T15:38:10;46.80;58.90
8220;DHT22;4151;51.110;7.020;2023-09-08T15:43:24;45.30;59.50
8220;DHT22;4151;51.110;7.020;2023-09-08T15:45:49;44.80;60.00
8220;DHT22;4151;51.110;7.020;2023-09-08T15:48:15;45.00;60.10
8220;DHT22;4151;51.110;7.020;2023-09-08T15:50:40;44.70;60.30
8220;DHT22;4151;51.110;7.020;2023-09-08T15:53:06;44.80;61.50
8220;DHT22;4151;51.110;7.020;2023-09-08T15:55:31;45.10;61.00
8220;DHT22;4151;51.110;7.020;2023-09-08T15:57:57;45.90;60.40
8220;DHT22;4151;51.110;7.020;2023-09-08T16:00:22;47.00;59.40
8220;DHT22;4151;51.110;7.020;2023-09-08T16:02:48;46.30;59.50
8220;DHT22;4151;51.110;7.020;2023-09-08T16:05:14;47.40;58.40
8220;DHT22;4151;51.110;7.020;2023-09-08T16:07:41;48.00;57.50